Time;durP1;ratioP1;P1;durP2;ratioP2;P2;SDS_P1;SDS_P2;PMS_P1;PMS_P2;Temp;Humidity;BMP_temperature;BMP_pressure;BME280_temperature;BME280_humidity;BME280_pressure;Samples;Min_cycle;Max_cycle;Signal;HPM_P1;HPM_P2
2022/05/20 00:01:53;;;;;;;5.93;2.70;;;14.70;69.20;;;;;;5015687;28;20377;-65
2022/05/20 00:04:18;;;;;;;6.00;2.77;;;14.60;69.20;;;;;;5016363;28;20187;-65
2022/05/20 00:06:44;;;;;;;4.43;2.47;;;14.70;69.40;;;;;;5013234;28;20219;-65
2022/05/20 00:09:10;;;;;;;4.57;2.70;;;14.60;69.50;;;;;;5037902;28;20196;-65
2022/05/20 00:11:36;;;;;;;4.77;2.77;;;14.60;69.60;;;;;;5016761;28;20207;-65
2022/05/20 00:14:01;;;;;;;3.90;2.80;;;14.60;69.50;;;;;;5033723;28;20164;-65
2022/05/20 00:16:29;;;;;;;4.37;2.77;;;14.60;69.70;;;;;;5012715;28;20188;-65
2022/05/20 00:18:55;;;;;;;3.80;2.60;;;14.50;69.70;;;;;;5012993;28;20184;-65
2022/05/20 00:21:21;;;;;;;6.30;3.33;;;14.50;69.70;;;;;;5029534;28;20210;-65
2022/05/20 00:23:46;;;;;;;5.10;2.50;;;14.50;69.80;;;;;;5019339;28;20190;-65
2022/05/20 00:26:12;;;;;;;6.10;2.87;;;14.50;70.00;;;;;;5016222;28;20188;-65
2022/05/20 00:28:38;;;;;;;3.47;2.80;;;14.50;69.80;;;;;;5011317;28;20260;-65
2022/05/20 00:31:10;;;;;;;5.70;2.60;;;14.40;69.60;;;;;;5012736;28;20180;-66
2022/05/20 00:33:40;;;;;;;3.47;2.60;;;14.40;70.40;;;;;;5014950;28;20176;-65
2022/05/20 00:36:06;;;;;;;2.43;2.23;;;14.40;70.20;;;;;;5025119;28;20187;-64
2022/05/20 00:38:32;;;;;;;5.93;2.70;;;14.40;70.20;;;;;;5015782;28;20193;-64
2022/05/20 00:40:58;;;;;;;3.33;2.67;;;14.40;70.30;;;;;;5028658;28;20228;-64
2022/05/20 00:43:33;;;;;;;4.03;2.73;;;14.30;70.40;;;;;;5009179;28;20223;-64
2022/05/20 00:46:02;;;;;;;4.80;2.60;;;14.40;70.70;;;;;;5017998;28;20267;-64
2022/05/20 00:48:29;;;;;;;4.27;2.70;;;14.30;70.70;;;;;;5049485;28;20213;-64
2022/05/20 00:50:59;;;;;;;4.00;2.77;;;14.30;70.90;;;;;;5049386;28;20191;-66
2022/05/20 00:53:27;;;;;;;2.67;2.47;;;14.30;71.00;;;;;;5049603;28;20189;-66
2022/05/20 00:55:53;;;;;;;3.37;2.60;;;14.30;71.20;;;;;;5049833;28;20263;-66
2022/05/20 00:58:21;;;;;;;4.33;3.27;;;14.30;71.50;;;;;;5052204;28;20286;-65
2022/05/20 01:00:54;;;;;;;3.97;2.60;;;14.30;71.50;;;;;;5035922;28;20187;-65
2022/05/20 01:03:26;;;;;;;5.70;2.97;;;14.30;71.30;;;;;;5035654;28;20207;-65
2022/05/20 01:05:54;;;;;;;5.13;2.93;;;14.30;71.30;;;;;;5035503;28;20194;-65
2022/05/20 01:08:29;;;;;;;5.23;3.00;;;14.30;71.30;;;;;;5035903;28;20241;-65
2022/05/20 01:10:55;;;;;;;3.77;3.03;;;14.30;71.50;;;;;;5036016;28;20176;-65
2022/05/20 01:13:25;;;;;;;5.13;3.13;;;14.30;71.60;;;;;;5018899;28;20198;-65
2022/05/20 01:15:51;;;;;;;4.33;3.00;;;14.30;71.50;;;;;;5035646;28;20187;-65
2022/05/20 01:18:17;;;;;;;3.70;3.00;;;14.30;71.70;;;;;;5028195;28;20203;-65
2022/05/20 01:20:50;;;;;;;4.93;2.83;;;14.30;71.80;;;;;;5015932;28;20263;-65
2022/05/20 01:23:19;;;;;;;3.73;2.67;;;14.30;72.20;;;;;;5048825;28;20212;-65
2022/05/20 01:25:48;;;;;;;3.53;2.80;;;14.30;71.90;;;;;;5035536;28;20183;-65
2022/05/20 01:28:16;;;;;;;6.47;3.47;;;14.30;72.00;;;;;;5051013;28;20223;-65
2022/05/20 01:30:48;;;;;;;7.03;3.00;;;14.30;72.30;;;;;;5019680;28;20180;-65
2022/05/20 01:33:22;;;;;;;4.67;2.57;;;14.30;72.40;;;;;;5035470;28;20254;-65
2022/05/20 01:35:48;;;;;;;4.30;3.40;;;14.30;72.50;;;;;;5036354;28;20180;-65
2022/05/20 01:38:13;;;;;;;6.07;3.00;;;14.30;72.70;;;;;;5018826;28;20187;-65
2022/05/20 01:40:45;;;;;;;5.47;2.83;;;14.30;72.40;;;;;;5018968;28;20244;-65
2022/05/20 01:43:22;;;;;;;3.53;2.93;;;14.30;72.50;;;;;;5035165;28;20187;-65
2022/05/20 01:45:57;;;;;;;3.17;2.87;;;14.30;72.50;;;;;;5035567;28;20191;-65
2022/05/20 01:48:43;;;;;;;6.23;3.27;;;14.30;72.70;;;;;;5035103;28;20262;-65
2022/05/20 01:51:13;;;;;;;3.63;3.00;;;14.30;72.30;;;;;;5036069;28;20195;-65
2022/05/20 01:53:50;;;;;;;4.83;2.73;;;14.30;72.30;;;;;;5035937;28;20204;-65
2022/05/20 01:56:24;;;;;;;3.37;3.07;;;14.30;72.00;;;;;;5036022;28;20167;-65
2022/05/20 01:59:26;;;;;;;3.83;2.70;;;14.30;72.20;;;;;;5034787;28;20212;-65
2022/05/20 02:02:05;;;;;;;5.47;2.93;;;14.30;72.50;;;;;;5034873;28;20257;-65
2022/05/20 02:04:43;;;;;;;4.30;2.80;;;14.30;72.90;;;;;;5034019;28;20198;-65
2022/05/20 02:07:13;;;;;;;2.47;2.27;;;14.30;72.90;;;;;;5034656;28;20188;-65
2022/05/20 02:09:46;;;;;;;4.60;2.83;;;14.30;73.10;;;;;;5034588;28;20195;-65
2022/05/20 02:12:16;;;;;;;3.20;2.67;;;14.20;73.00;;;;;;5035032;28;20198;-65
2022/05/20 02:14:48;;;;;;;5.03;3.17;;;14.30;73.40;;;;;;5035575;28;20179;-65
2022/05/20 02:17:24;;;;;;;5.27;3.10;;;14.30;73.20;;;;;;5035475;28;20183;-65
2022/05/20 02:20:13;;;;;;;4.60;3.20;;;14.30;73.30;;;;;;5034441;28;20226;-65
2022/05/20 02:23:00;;;;;;;6.20;3.20;;;14.30;73.30;;;;;;5033310;28;20221;-64
2022/05/20 02:25:30;;;;;;;5.93;3.20;;;14.30;73.10;;;;;;5034003;28;20186;-64
2022/05/20 02:28:19;;;;;;;3.90;2.80;;;14.30;73.20;;;;;;5033352;28;20226;-64
2022/05/20 02:30:46;;;;;;;5.07;3.03;;;14.30;73.40;;;;;;5035284;28;20192;-64
2022/05/20 02:33:17;;;;;;;5.53;3.30;;;14.30;73.00;;;;;;5018202;28;20206;-64
2022/05/20 02:35:44;;;;;;;5.10;3.13;;;14.30;72.50;;;;;;5034215;28;20174;-64
2022/05/20 02:38:16;;;;;;;5.13;2.90;;;14.40;72.00;;;;;;5017499;28;20188;-64
2022/05/20 02:40:47;;;;;;;4.13;3.10;;;14.50;71.60;;;;;;5035197;28;20226;-64
2022/05/20 02:43:13;;;;;;;4.83;2.93;;;14.60;71.30;;;;;;5034018;28;20235;-64
2022/05/20 02:45:41;;;;;;;6.03;3.20;;;14.60;71.10;;;;;;5033848;28;20266;-64
2022/05/20 02:48:07;;;;;;;5.40;3.53;;;14.60;71.10;;;;;;5017123;28;20187;-64
2022/05/20 02:50:33;;;;;;;5.87;3.20;;;14.70;71.00;;;;;;5016652;28;20188;-64
2022/05/20 02:53:00;;;;;;;4.10;3.17;;;14.70;70.80;;;;;;5017065;28;20206;-64
2022/05/20 02:55:26;;;;;;;7.83;4.03;;;14.80;70.80;;;;;;5017032;28;20180;-64
2022/05/20 02:57:52;;;;;;;3.97;3.53;;;14.80;70.40;;;;;;5017688;28;20198;-64
2022/05/20 03:05:46;;;;;;;5.37;3.73;;;15.00;70.10;;;;;;5031768;28;20281;-65
2022/05/20 03:08:12;;;;;;;7.17;3.57;;;15.00;70.30;;;;;;5032943;28;20227;-65
2022/05/20 03:10:38;;;;;;;3.70;3.30;;;15.00;70.20;;;;;;5033605;28;20196;-64
2022/05/20 03:13:07;;;;;;;5.13;3.30;;;15.00;70.10;;;;;;5033274;28;20262;-64
2022/05/20 03:15:33;;;;;;;3.87;3.57;;;15.00;70.10;;;;;;5029344;28;20296;-64
2022/05/20 03:17:59;;;;;;;3.80;3.17;;;15.00;70.20;;;;;;5032218;28;20191;-64
2022/05/20 03:20:25;;;;;;;3.77;3.47;;;15.00;70.30;;;;;;5015544;28;20198;-64
2022/05/20 03:22:51;;;;;;;5.90;3.37;;;15.00;70.40;;;;;;5016022;28;20256;-64
2022/05/20 03:25:17;;;;;;;7.30;3.83;;;15.00;70.70;;;;;;5016591;28;20199;-64
2022/05/20 03:27:43;;;;;;;4.40;3.33;;;15.00;70.90;;;;;;5034001;28;20195;-64
2022/05/20 03:30:10;;;;;;;4.97;3.73;;;15.00;71.30;;;;;;5033713;28;20218;-64
2022/05/20 03:32:37;;;;;;;4.13;3.70;;;15.10;70.80;;;;;;5044347;28;20221;-64
2022/05/20 03:35:04;;;;;;;3.47;3.17;;;15.10;70.80;;;;;;5015101;28;20196;-64
2022/05/20 03:37:30;;;;;;;7.20;3.83;;;15.10;70.60;;;;;;5016621;28;20278;-64
2022/05/20 03:39:56;;;;;;;6.33;3.90;;;15.20;70.20;;;;;;5032783;28;20251;-64
2022/05/20 03:42:23;;;;;;;5.57;3.80;;;15.20;69.90;;;;;;5032632;28;20242;-64
2022/05/20 03:44:49;;;;;;;4.70;4.10;;;15.30;69.80;;;;;;5032893;28;20199;-64
2022/05/20 03:47:14;;;;;;;7.00;4.73;;;15.30;69.70;;;;;;5016692;28;20198;-64
2022/05/20 03:49:42;;;;;;;6.67;4.33;;;15.40;69.60;;;;;;5017309;28;20191;-65
2022/05/20 03:52:08;;;;;;;6.50;4.13;;;15.50;69.60;;;;;;5016179;28;20242;-62
2022/05/20 03:54:34;;;;;;;6.67;4.07;;;15.50;69.80;;;;;;5033159;28;20248;-62
2022/05/20 03:57:02;;;;;;;8.73;4.20;;;15.60;69.70;;;;;;5014805;28;20199;-62
2022/05/20 03:59:28;;;;;;;4.30;3.63;;;15.60;69.90;;;;;;5034198;28;20163;-62
2022/05/20 04:01:57;;;;;;;6.07;4.37;;;15.60;70.00;;;;;;5030871;28;20249;-61
2022/05/20 04:04:32;;;;;;;7.60;5.10;;;15.70;70.20;;;;;;5030913;28;20240;-62
2022/05/20 04:07:09;;;;;;;6.50;4.67;;;15.70;70.30;;;;;;5034839;28;20193;-62
2022/05/20 04:09:35;;;;;;;6.90;4.40;;;15.70;69.90;;;;;;5035459;28;20197;-62
2022/05/20 04:12:04;;;;;;;11.13;5.73;;;15.70;69.70;;;;;;5036767;28;20210;-62
2022/05/20 04:14:30;;;;;;;5.07;4.30;;;15.80;70.00;;;;;;5035187;28;20273;-62
2022/05/20 04:16:59;;;;;;;8.27;4.83;;;15.80;70.50;;;;;;5019247;28;20188;-62
2022/05/20 04:19:27;;;;;;;6.97;4.83;;;15.80;69.90;;;;;;5019859;28;20217;-62
2022/05/20 04:21:57;;;;;;;9.20;5.20;;;15.80;69.70;;;;;;5036766;28;20187;-62
2022/05/20 04:24:23;;;;;;;7.83;4.70;;;15.90;69.50;;;;;;5036442;28;20211;-62
2022/05/20 04:26:49;;;;;;;7.87;5.17;;;15.90;69.60;;;;;;5034932;28;20222;-62
2022/05/20 04:29:15;;;;;;;11.77;5.23;;;15.90;69.90;;;;;;5017513;28;20223;-62
2022/05/20 04:31:48;;;;;;;12.60;5.80;;;16.00;70.20;;;;;;5033478;28;20284;-62
2022/05/20 04:34:14;;;;;;;10.63;5.63;;;16.00;70.60;;;;;;5035501;28;20193;-62
2022/05/20 04:36:40;;;;;;;9.20;5.17;;;16.10;70.70;;;;;;5014833;28;20191;-62
2022/05/20 04:39:06;;;;;;;10.90;5.30;;;16.10;71.10;;;;;;5032408;28;20206;-62
2022/05/20 04:47:03;;;;;;;11.47;5.03;;;16.20;72.00;;;;;;5033154;28;20206;-62
2022/05/20 04:49:30;;;;;;;11.93;5.83;;;16.20;71.50;;;;;;5034846;28;20187;-62
2022/05/20 04:51:56;;;;;;;9.90;6.10;;;16.20;71.50;;;;;;5068153;28;20233;-62
2022/05/20 04:57:08;;;;;;;8.57;4.90;;;16.20;72.20;;;;;;5036258;28;20179;-62
2022/05/20 04:59:38;;;;;;;7.90;4.90;;;16.20;72.50;;;;;;5036010;28;20175;-62
2022/05/20 05:02:04;;;;;;;8.40;4.90;;;16.20;73.10;;;;;;5031869;28;20190;-62
2022/05/20 05:04:31;;;;;;;18.87;11.70;;;16.20;73.40;;;;;;5022714;28;20218;-62
2022/05/20 05:06:57;;;;;;;30.20;18.10;;;16.20;73.70;;;;;;5015797;28;20195;-63
2022/05/20 05:09:23;;;;;;;25.57;16.67;;;16.20;74.00;;;;;;5034678;28;20195;-62
2022/05/20 05:11:49;;;;;;;22.23;15.67;;;16.20;73.90;;;;;;5034894;28;20214;-63
2022/05/20 05:14:15;;;;;;;13.27;9.47;;;16.30;73.90;;;;;;5035008;28;20222;-63
2022/05/20 05:16:43;;;;;;;13.47;8.13;;;16.30;73.20;;;;;;5034773;28;20233;-63
2022/05/20 05:19:09;;;;;;;15.97;8.83;;;16.30;72.80;;;;;;5034825;28;20180;-63
2022/05/20 05:21:35;;;;;;;13.77;8.70;;;16.30;72.70;;;;;;5034353;28;20196;-63
2022/05/20 05:24:01;;;;;;;10.77;8.00;;;16.30;73.10;;;;;;5017939;28;20195;-62
2022/05/20 05:26:32;;;;;;;17.77;7.20;;;16.40;73.50;;;;;;5018087;28;20195;-63
2022/05/20 05:28:59;;;;;;;9.80;5.93;;;16.50;73.70;;;;;;5034278;28;20187;-63
2022/05/20 05:31:26;;;;;;;11.37;5.20;;;16.50;72.70;;;;;;5035180;28;20214;-63
2022/05/20 05:33:53;;;;;;;8.47;4.90;;;16.60;71.60;;;;;;5017787;28;20187;-65
2022/05/20 05:36:19;;;;;;;7.03;4.57;;;16.70;69.60;;;;;;5028503;28;20229;-65
2022/05/20 05:38:46;;;;;;;7.57;3.57;;;16.80;67.50;;;;;;5016872;28;20203;-65
2022/05/20 05:41:13;;;;;;;8.90;4.57;;;16.80;67.20;;;;;;5033621;28;20235;-63
2022/05/20 05:43:39;;;;;;;12.13;4.73;;;16.90;67.60;;;;;;5017566;28;20191;-63
2022/05/20 05:46:05;;;;;;;6.57;4.20;;;16.90;67.30;;;;;;5033121;28;20260;-63
2022/05/20 05:48:31;;;;;;;7.57;4.00;;;17.00;67.30;;;;;;5016519;28;20206;-63
2022/05/20 05:50:58;;;;;;;9.50;4.47;;;17.00;68.10;;;;;;5032976;28;20183;-63
2022/05/20 05:53:25;;;;;;;4.67;3.63;;;17.00;69.20;;;;;;5033610;28;20210;-63
2022/05/20 05:55:57;;;;;;;5.73;3.60;;;17.00;70.00;;;;;;5032311;28;20183;-63
2022/05/20 05:58:23;;;;;;;9.20;4.57;;;17.00;70.30;;;;;;5033480;28;20195;-63
2022/05/20 06:00:48;;;;;;;6.77;4.17;;;17.10;70.70;;;;;;5033447;28;20191;-61
2022/05/20 06:03:16;;;;;;;7.33;4.43;;;17.10;70.60;;;;;;5033429;28;20206;-61
2022/05/20 06:05:42;;;;;;;8.57;4.00;;;17.10;71.00;;;;;;5017405;28;20194;-61
2022/05/20 06:08:08;;;;;;;7.53;4.30;;;17.10;71.20;;;;;;5017506;28;20286;-60
2022/05/20 06:10:34;;;;;;;6.57;4.40;;;17.10;71.20;;;;;;5033593;28;20287;-60
2022/05/20 06:13:00;;;;;;;7.37;4.60;;;17.10;71.40;;;;;;5033702;28;20290;-60
2022/05/20 06:15:26;;;;;;;8.63;4.20;;;17.10;71.50;;;;;;5017011;28;20285;-60
2022/05/20 06:17:53;;;;;;;5.83;4.37;;;17.00;71.70;;;;;;5016996;28;20204;-60
2022/05/20 06:20:21;;;;;;;6.73;4.20;;;17.00;72.60;;;;;;5016929;28;20183;-60
2022/05/20 06:22:47;;;;;;;7.03;4.17;;;17.10;73.00;;;;;;5033184;28;20240;-61
2022/05/20 06:25:13;;;;;;;6.93;4.00;;;17.00;73.00;;;;;;5017189;28;20187;-63
2022/05/20 06:27:40;;;;;;;6.17;4.13;;;17.00;73.20;;;;;;5016814;28;20195;-60
2022/05/20 06:30:08;;;;;;;4.57;3.80;;;17.00;73.40;;;;;;5032204;28;20213;-61
2022/05/20 06:32:35;;;;;;;5.03;3.50;;;17.00;73.50;;;;;;5032796;28;20207;-61
2022/05/20 06:40:40;;;;;;;5.80;3.63;;;17.20;73.30;;;;;;5034164;28;20394;-60
2022/05/20 06:43:06;;;;;;;6.80;4.17;;;17.20;73.50;;;;;;5033060;28;20214;-60
2022/05/20 06:45:32;;;;;;;6.00;3.83;;;17.20;73.90;;;;;;5016477;28;20221;-60
2022/05/20 06:47:58;;;;;;;5.30;4.03;;;17.30;74.40;;;;;;5016629;28;20210;-60
2022/05/20 06:50:24;;;;;;;4.90;4.27;;;17.30;74.00;;;;;;5032817;28;20190;-59
2022/05/20 06:52:49;;;;;;;9.63;4.50;;;17.30;74.00;;;;;;5016242;28;20215;-60
2022/05/20 06:55:15;;;;;;;8.23;4.60;;;17.30;73.30;;;;;;5016291;28;20195;-60
2022/05/20 06:57:41;;;;;;;9.57;4.97;;;17.40;72.50;;;;;;5032547;28;20187;-60
2022/05/20 07:00:11;;;;;;;9.13;4.97;;;17.50;71.60;;;;;;5016497;28;20202;-63
2022/05/20 07:02:38;;;;;;;7.77;4.07;;;17.60;70.50;;;;;;5032532;28;20264;-60
2022/05/20 07:05:04;;;;;;;6.77;4.87;;;17.60;71.60;;;;;;5016330;28;20261;-63
2022/05/20 07:07:31;;;;;;;6.97;4.10;;;17.70;72.00;;;;;;5033628;28;20205;-60
2022/05/20 07:09:57;;;;;;;7.53;4.23;;;17.80;72.30;;;;;;5032369;28;20184;-60
2022/05/20 07:12:22;;;;;;;6.50;4.40;;;17.80;73.10;;;;;;5015883;28;20221;-60
2022/05/20 07:14:48;;;;;;;4.00;3.57;;;17.80;73.00;;;;;;5016208;28;20201;-60
2022/05/20 07:17:18;;;;;;;8.43;5.10;;;17.90;73.10;;;;;;5032433;28;20251;-60
2022/05/20 07:19:44;;;;;;;11.07;4.70;;;18.00;73.10;;;;;;5032409;28;20202;-60
2022/05/20 07:22:10;;;;;;;9.70;5.57;;;18.10;72.40;;;;;;5015870;28;20218;-60
2022/05/20 07:24:37;;;;;;;9.37;5.73;;;18.20;71.30;;;;;;5015645;28;20267;-60
2022/05/20 07:27:04;;;;;;;8.63;4.77;;;18.30;70.70;;;;;;5032395;28;20245;-60
2022/05/20 07:29:30;;;;;;;9.07;5.30;;;18.30;69.00;;;;;;5015683;28;20194;-60
2022/05/20 07:31:56;;;;;;;13.40;6.23;;;18.50;69.20;;;;;;5032356;28;20282;-60
2022/05/20 07:34:22;;;;;;;11.07;5.40;;;18.60;68.80;;;;;;5015746;28;20243;-60
2022/05/20 07:36:47;;;;;;;8.30;5.23;;;18.70;68.80;;;;;;5032181;28;20207;-60
2022/05/20 07:39:13;;;;;;;9.27;5.33;;;18.80;69.60;;;;;;5031924;28;20183;-60
2022/05/20 07:41:38;;;;;;;8.70;5.50;;;18.90;69.30;;;;;;5031903;28;20277;-60
2022/05/20 07:44:04;;;;;;;6.13;4.53;;;19.00;69.90;;;;;;5015568;28;20290;-60
2022/05/20 07:46:31;;;;;;;8.27;5.53;;;19.20;69.20;;;;;;5032086;28;20271;-60
2022/05/20 07:48:56;;;;;;;7.23;5.20;;;19.30;67.00;;;;;;5032026;28;20183;-60
2022/05/20 07:51:24;;;;;;;5.87;4.90;;;19.30;66.40;;;;;;5015764;28;20209;-60
2022/05/20 07:53:54;;;;;;;9.67;5.83;;;19.50;67.60;;;;;;5031838;28;20222;-60
2022/05/20 07:56:34;;;;;;;7.67;4.67;;;19.60;67.00;;;;;;5032046;28;20187;-60
2022/05/20 07:59:06;;;;;;;8.43;4.67;;;19.60;66.40;;;;;;5031824;28;20175;-60
2022/05/20 08:01:35;;;;;;;9.23;4.90;;;19.80;67.10;;;;;;5031825;28;20273;-60
2022/05/20 08:06:57;;;;;;;8.30;5.57;;;19.90;67.80;;;;;;5033208;28;20214;-60
2022/05/20 08:09:22;;;;;;;12.17;5.33;;;20.00;66.30;;;;;;5031772;28;20195;-60
2022/05/20 08:11:48;;;;;;;9.77;5.33;;;20.10;64.90;;;;;;5015216;28;20305;-60
2022/05/20 08:14:14;;;;;;;15.23;5.93;;;20.20;64.20;;;;;;5015656;28;20183;-60
2022/05/20 08:16:39;;;;;;;6.93;4.83;;;20.30;63.80;;;;;;5015224;28;20186;-59
2022/05/20 08:19:05;;;;;;;9.07;5.37;;;20.30;63.80;;;;;;5015480;28;20209;-59
2022/05/20 08:21:31;;;;;;;9.30;5.47;;;20.40;64.50;;;;;;5015465;28;20190;-59
2022/05/20 08:23:57;;;;;;;9.23;5.17;;;20.40;65.30;;;;;;5015626;28;20287;-59
2022/05/20 08:26:23;;;;;;;6.73;4.40;;;20.50;63.70;;;;;;5031659;28;20262;-59
2022/05/20 08:28:49;;;;;;;9.93;5.40;;;20.60;64.20;;;;;;5015145;28;20183;-60
2022/05/20 08:31:15;;;;;;;7.33;4.70;;;20.60;65.40;;;;;;5015106;28;20195;-59
2022/05/20 08:33:42;;;;;;;5.00;4.33;;;20.70;65.30;;;;;;5015255;28;20195;-61
2022/05/20 08:36:08;;;;;;;6.07;4.60;;;20.70;65.10;;;;;;5015074;28;20183;-60
2022/05/20 08:38:34;;;;;;;5.50;4.33;;;20.70;65.60;;;;;;5031983;28;20180;-60
2022/05/20 08:41:00;;;;;;;5.47;4.27;;;20.80;66.60;;;;;;5014986;28;20234;-60
2022/05/20 08:43:32;;;;;;;7.53;4.33;;;20.80;66.60;;;;;;5015016;28;20254;-60
2022/05/20 08:45:59;;;;;;;6.83;5.03;;;20.80;66.40;;;;;;5031807;28;20187;-60
2022/05/20 08:48:25;;;;;;;6.10;4.60;;;20.80;65.70;;;;;;5014905;28;20187;-60
2022/05/20 08:50:53;;;;;;;9.83;4.33;;;20.80;64.70;;;;;;5031319;28;20233;-59
2022/05/20 08:53:46;;;;;;;8.47;4.33;;;20.90;65.40;;;;;;5031405;28;20241;-59
2022/05/20 08:56:15;;;;;;;6.23;4.83;;;21.00;62.90;;;;;;5031913;28;20241;-59
2022/05/20 08:58:52;;;;;;;6.20;4.03;;;21.20;62.20;;;;;;5036064;28;20167;-59
2022/05/20 09:01:42;;;;;;;5.20;4.27;;;21.30;62.40;;;;;;5034751;28;20189;-59
2022/05/20 09:04:14;;;;;;;8.00;4.10;;;21.30;62.20;;;;;;5035152;28;20178;-58
2022/05/20 09:06:58;;;;;;;4.83;3.80;;;21.50;62.00;;;;;;5034753;28;20167;-58
2022/05/20 09:09:27;;;;;;;8.27;4.60;;;21.60;60.90;;;;;;5034883;28;20209;-58
2022/05/20 09:11:56;;;;;;;4.63;3.57;;;21.80;57.70;;;;;;5034421;28;20210;-57
2022/05/20 09:17:25;;;;;;;5.60;3.93;;;21.90;58.90;;;;;;5035812;28;20173;-59
2022/05/20 09:20:05;;;;;;;5.43;4.00;;;22.00;60.00;;;;;;5034477;28;20179;-59
2022/05/20 09:22:37;;;;;;;4.73;3.80;;;22.10;55.30;;;;;;5034371;28;20187;-59
2022/05/20 09:25:27;;;;;;;5.73;3.47;;;22.20;56.20;;;;;;5018121;28;20214;-58
2022/05/20 09:28:31;;;;;;;4.53;3.40;;;22.20;56.80;;;;;;5034403;28;20187;-58
2022/05/20 09:31:36;;;;;;;4.27;3.47;;;22.30;58.00;;;;;;5020567;28;20218;-59
2022/05/20 09:34:15;;;;;;;6.53;4.27;;;22.40;58.10;;;;;;5035393;28;20221;-58
2022/05/20 09:37:02;;;;;;;3.47;3.17;;;22.50;59.00;;;;;;5034072;28;20183;-59
2022/05/20 09:39:32;;;;;;;3.90;3.50;;;22.60;58.40;;;;;;5035488;28;20163;-58
2022/05/20 09:42:04;;;;;;;3.97;2.83;;;22.60;59.10;;;;;;5033862;28;20326;-61
2022/05/20 09:44:38;;;;;;;6.10;3.87;;;22.70;59.90;;;;;;5018550;28;20179;-62
2022/05/20 09:47:13;;;;;;;3.47;3.17;;;22.80;58.30;;;;;;5033905;28;20274;-62
2022/05/20 09:49:38;;;;;;;5.37;3.17;;;22.80;56.30;;;;;;5034235;28;20179;-62
2022/05/20 09:52:16;;;;;;;8.27;4.00;;;23.00;55.20;;;;;;5033733;28;20201;-62
2022/05/20 09:54:47;;;;;;;3.60;3.30;;;23.00;56.10;;;;;;5033782;28;20167;-61
2022/05/20 09:57:41;;;;;;;5.20;3.67;;;23.10;56.90;;;;;;5033964;28;20171;-61
2022/05/20 10:00:18;;;;;;;4.20;3.63;;;23.20;57.00;;;;;;5025935;28;20198;-61
2022/05/20 10:03:12;;;;;;;3.20;2.90;;;23.30;57.10;;;;;;5033742;28;20179;-61
2022/05/20 10:06:04;;;;;;;3.63;3.30;;;23.30;55.90;;;;;;5033534;28;20275;-61
2022/05/20 10:08:44;;;;;;;4.00;3.17;;;23.30;56.10;;;;;;5033533;28;20187;-62
2022/05/20 10:11:30;;;;;;;4.07;3.67;;;23.50;57.50;;;;;;5033661;28;20262;-62
2022/05/20 10:14:07;;;;;;;3.73;3.33;;;23.60;56.10;;;;;;5032679;28;20249;-62
2022/05/20 10:16:41;;;;;;;5.33;3.70;;;23.70;55.50;;;;;;5033345;28;20187;-62
2022/05/20 10:19:31;;;;;;;4.63;3.40;;;23.90;53.90;;;;;;5033500;28;20189;-62
2022/05/20 10:22:14;;;;;;;5.27;3.50;;;24.00;52.40;;;;;;5033314;28;20182;-62
2022/05/20 10:25:05;;;;;;;5.40;3.17;;;24.30;51.10;;;;;;5033217;28;20209;-62
2022/05/20 10:27:52;;;;;;;3.70;3.17;;;24.40;51.20;;;;;;5034186;28;20206;-61
2022/05/20 10:33:07;;;;;;;3.70;3.33;;;24.70;49.50;;;;;;5034360;28;20253;-62
2022/05/20 10:35:56;;;;;;;3.20;2.90;;;24.90;48.50;;;;;;5033189;28;20183;-62
2022/05/20 10:38:44;;;;;;;5.47;3.33;;;25.20;47.10;;;;;;5033601;28;20198;-62
2022/05/20 10:41:37;;;;;;;4.23;3.27;;;25.30;48.10;;;;;;5032970;28;20288;-62
2022/05/20 10:50:18;;;;;;;3.80;3.23;;;25.60;49.70;;;;;;5034278;28;20206;-62
2022/05/20 10:53:12;;;;;;;3.10;2.80;;;25.60;50.20;;;;;;5033133;28;20285;-62
2022/05/20 10:55:45;;;;;;;3.10;2.87;;;25.70;50.70;;;;;;5033833;28;20210;-62
2022/05/20 10:58:44;;;;;;;3.33;3.00;;;25.80;52.00;;;;;;5032726;28;20247;-62
2022/05/20 11:01:31;;;;;;;2.87;2.67;;;25.80;53.20;;;;;;5032697;28;20181;-63
2022/05/20 11:04:10;;;;;;;5.27;3.30;;;25.90;51.40;;;;;;5032889;28;20179;-62
2022/05/20 11:06:49;;;;;;;3.93;3.37;;;26.00;49.50;;;;;;5027019;28;20179;-62
2022/05/20 11:09:39;;;;;;;4.33;3.43;;;26.20;50.90;;;;;;5012790;28;20266;-61
2022/05/20 11:12:06;;;;;;;3.77;3.17;;;26.30;49.00;;;;;;5025785;28;20298;-62
2022/05/20 11:14:57;;;;;;;5.60;2.77;;;26.50;51.40;;;;;;5016280;28;20187;-61
2022/05/20 11:17:47;;;;;;;3.10;2.90;;;26.80;46.80;;;;;;5033023;28;20210;-61
2022/05/20 11:20:32;;;;;;;3.10;2.90;;;27.00;47.80;;;;;;5032451;28;20183;-61
2022/05/20 11:23:00;;;;;;;3.20;2.87;;;27.20;47.90;;;;;;5032530;28;20190;-62
2022/05/20 11:25:43;;;;;;;2.97;2.77;;;27.40;45.90;;;;;;5032467;28;20191;-61
2022/05/20 11:28:45;;;;;;;3.00;2.70;;;27.50;48.70;;;;;;5032437;28;20187;-61
2022/05/20 11:31:29;;;;;;;2.87;2.67;;;27.50;46.90;;;;;;5033389;28;20242;-61
2022/05/20 11:34:12;;;;;;;3.70;2.50;;;27.60;45.20;;;;;;5033898;28;20183;-61
2022/05/20 11:37:15;;;;;;;2.53;2.33;;;27.70;46.20;;;;;;5033474;28;20186;-61
2022/05/20 11:40:03;;;;;;;3.60;2.77;;;27.80;44.70;;;;;;5032587;28;20186;-62
2022/05/20 11:43:01;;;;;;;3.43;3.07;;;28.10;44.30;;;;;;5033345;28;20190;-63
2022/05/20 11:45:52;;;;;;;2.90;2.70;;;28.30;47.00;;;;;;5033881;28;20241;-61
2022/05/20 11:48:35;;;;;;;3.27;2.43;;;28.60;45.30;;;;;;5031379;28;20235;-62
2022/05/20 11:51:07;;;;;;;3.53;2.70;;;28.80;41.90;;;;;;5033437;28;20171;-62
2022/05/20 11:53:50;;;;;;;3.27;2.50;;;29.20;41.30;;;;;;5028491;28;20225;-62
2022/05/20 11:56:22;;;;;;;6.03;3.63;;;29.50;43.30;;;;;;5032954;28;20278;-62
2022/05/20 11:59:17;;;;;;;2.80;2.53;;;30.00;43.60;;;;;;5032914;28;20211;-62
2022/05/20 12:01:45;;;;;;;4.40;2.53;;;30.40;42.80;;;;;;5032837;28;20233;-62
2022/05/20 12:04:11;;;;;;;3.50;3.20;;;31.00;41.50;;;;;;5034337;28;20262;-62
2022/05/20 12:06:45;;;;;;;3.63;2.90;;;31.60;42.10;;;;;;5032864;28;20218;-62
2022/05/20 12:09:32;;;;;;;4.37;3.40;;;32.00;39.40;;;;;;5033060;28;20179;-62
2022/05/20 12:12:24;;;;;;;3.30;2.80;;;32.40;40.80;;;;;;5032817;28;20215;-66
2022/05/20 12:15:04;;;;;;;4.63;3.30;;;32.90;39.80;;;;;;5034318;28;20167;-66
2022/05/20 12:17:30;;;;;;;3.33;2.90;;;33.70;36.00;;;;;;5032745;28;20185;-66
2022/05/20 12:25:46;;;;;;;4.23;2.60;;;35.80;30.90;;;;;;5034177;28;20228;-65
2022/05/20 12:28:21;;;;;;;3.23;2.80;;;36.40;28.50;;;;;;5030990;28;20274;-65
2022/05/20 12:31:18;;;;;;;4.60;2.70;;;36.70;27.40;;;;;;5035224;28;20248;-65
2022/05/20 12:34:05;;;;;;;6.10;2.90;;;37.60;28.70;;;;;;5031813;28;20214;-65
2022/05/20 12:36:35;;;;;;;2.73;2.53;;;37.50;26.30;;;;;;5036515;28;20221;-65
2022/05/20 12:39:07;;;;;;;3.13;2.77;;;38.20;26.30;;;;;;5036587;28;20182;-65
2022/05/20 12:41:44;;;;;;;5.03;2.67;;;39.00;24.70;;;;;;5037370;28;20225;-65
2022/05/20 12:44:16;;;;;;;7.43;3.00;;;40.10;24.50;;;;;;5036287;28;20182;-64
2022/05/20 12:47:13;;;;;;;5.60;3.00;;;40.90;25.10;;;;;;5037281;28;20163;-64
2022/05/20 12:49:47;;;;;;;4.95;2.40;;;41.60;24.40;;;;;;5034305;28;20187;-65
2022/05/20 12:52:21;;;;;;;3.40;2.40;;;42.70;22.00;;;;;;5036513;28;20206;-65
2022/05/20 12:54:59;;;;;;;4.78;2.60;;;44.10;21.50;;;;;;5032217;28;20238;-65
2022/05/20 12:57:33;;;;;;;4.60;2.38;;;45.00;20.80;;;;;;5017359;28;20171;-66
2022/05/20 13:00:03;;;;;;;4.07;2.42;;;45.80;18.50;;;;;;5032679;28;20281;-66
2022/05/20 13:02:33;;;;;;;2.75;2.13;;;45.10;20.40;;;;;;5035967;28;20175;-66
2022/05/20 13:05:13;;;;;;;2.58;2.20;;;44.80;20.30;;;;;;5035258;28;20183;-66
2022/05/20 13:07:42;;;;;;;3.10;2.22;;;44.70;21.70;;;;;;5015424;28;20191;-66
2022/05/20 13:10:26;;;;;;;3.88;2.38;;;44.50;21.30;;;;;;5032009;28;20180;-66
2022/05/20 13:12:54;;;;;;;3.45;2.40;;;44.30;19.90;;;;;;5068853;28;20206;-64
2022/05/20 13:15:20;;;;;;;2.38;2.25;;;43.70;20.30;;;;;;5035525;28;20168;-64
2022/05/20 13:17:59;;;;;;;3.20;2.15;;;43.20;20.80;;;;;;5036476;28;20186;-64
2022/05/20 13:20:28;;;;;;;3.33;2.42;;;42.10;22.70;;;;;;5035801;28;20236;-64
2022/05/20 13:22:59;;;;;;;2.17;1.98;;;41.70;24.30;;;;;;5060001;28;20271;-64
2022/05/20 13:25:25;;;;;;;3.03;2.20;;;41.40;24.30;;;;;;5029908;28;20187;-64
2022/05/20 13:27:50;;;;;;;3.90;2.30;;;41.00;23.40;;;;;;5019294;28;20229;-64
2022/05/20 13:30:30;;;;;;;4.13;2.33;;;40.20;24.10;;;;;;5017738;28;20187;-66
2022/05/20 13:33:07;;;;;;;3.13;2.45;;;40.20;22.90;;;;;;5032765;28;20211;-65
2022/05/20 13:35:48;;;;;;;2.58;2.38;;;39.80;24.20;;;;;;5064942;28;20187;-63
2022/05/20 13:38:14;;;;;;;2.78;2.50;;;39.70;25.00;;;;;;5031816;28;20175;-62
2022/05/20 13:40:42;;;;;;;3.13;2.10;;;39.00;25.80;;;;;;5017118;28;20246;-63
2022/05/20 13:43:13;;;;;;;3.33;2.30;;;38.80;24.70;;;;;;5035513;28;20246;-63
2022/05/20 13:51:32;;;;;;;2.50;2.30;;;38.20;26.70;;;;;;5036069;28;20201;-63
2022/05/20 13:54:03;;;;;;;3.00;2.17;;;38.00;27.60;;;;;;5035168;28;20183;-60
2022/05/20 13:56:41;;;;;;;2.70;2.20;;;37.70;29.20;;;;;;5035185;28;20183;-60